sensor_id;sensor_type;location;lat;lon;timestamp;pressure;altitude;pressure_sealevel;temperature;humidity
71165;BME280;58859;55.132;-1.586;2023-05-20T00:00:06;102666.84;;;18.64;100.00
71165;BME280;58859;55.132;-1.586;2023-05-20T00:02:32;102663.84;;;18.84;100.00
71165;BME280;58859;55.132;-1.586;2023-05-20T00:04:57;102663.69;;;18.60;100.00
71165;BME280;58859;55.132;-1.586;2023-05-20T00:07:23;102664.09;;;18.73;100.00
71165;BME280;58859;55.132;-1.586;2023-05-20T00:09:48;102653.53;;;18.91;100.00
71165;BME280;58859;55.132;-1.586;2023-05-20T00:12:14;102649.66;;;18.77;100.00
71165;BME280;58859;55.132;-1.586;2023-05-20T00:14:39;102649.63;;;18.95;100.00
71165;BME280;58859;55.132;-1.586;2023-05-20T00:17:05;102653.25;;;18.76;100.00
71165;BME280;58859;55.132;-1.586;2023-05-20T00:19:30;102652.66;;;18.65;100.00
71165;BME280;58859;55.132;-1.586;2023-05-20T00:21:57;102652.03;;;18.88;100.00
71165;BME280;58859;55.132;-1.586;2023-05-20T00:24:23;102665.41;;;18.69;100.00
71165;BME280;58859;55.132;-1.586;2023-05-20T00:26:49;102673.56;;;12.26;100.00
71165;BME280;58859;55.132;-1.586;2023-05-20T00:29:14;102664.28;;;16.41;100.00
71165;BME280;58859;55.132;-1.586;2023-05-20T00:31:40;102670.22;;;17.10;100.00
71165;BME280;58859;55.132;-1.586;2023-05-20T00:34:06;102666.25;;;17.43;100.00
71165;BME280;58859;55.132;-1.586;2023-05-20T00:36:32;102655.06;;;18.23;100.00
71165;BME280;58859;55.132;-1.586;2023-05-20T00:38:57;102672.78;;;17.30;100.00
71165;BME280;58859;55.132;-1.586;2023-05-20T00:41:23;102661.31;;;18.22;100.00
71165;BME280;58859;55.132;-1.586;2023-05-20T00:43:52;102656.91;;;18.58;100.00
71165;BME280;58859;55.132;-1.586;2023-05-20T00:46:18;102654.19;;;18.67;100.00
71165;BME280;58859;55.132;-1.586;2023-05-20T00:48:43;102642.94;;;18.65;100.00
71165;BME280;58859;55.132;-1.586;2023-05-20T00:51:10;102652.38;;;18.68;100.00
71165;BME280;58859;55.132;-1.586;2023-05-20T00:53:37;102647.84;;;18.60;100.00
71165;BME280;58859;55.132;-1.586;2023-05-20T00:56:03;102645.94;;;18.70;100.00
71165;BME280;58859;55.132;-1.586;2023-05-20T00:58:30;102646.41;;;18.83;100.00
71165;BME280;58859;55.132;-1.586;2023-05-20T01:00:55;102650.44;;;18.52;100.00
71165;BME280;58859;55.132;-1.586;2023-05-20T01:03:21;102641.38;;;18.55;100.00
71165;BME280;58859;55.132;-1.586;2023-05-20T01:05:46;102643.03;;;18.38;100.00
71165;BME280;58859;55.132;-1.586;2023-05-20T01:08:12;102638.25;;;18.06;100.00
71165;BME280;58859;55.132;-1.586;2023-05-20T01:10:41;102637.88;;;17.74;100.00
71165;BME280;58859;55.132;-1.586;2023-05-20T01:13:10;102636.72;;;17.86;100.00
71165;BME280;58859;55.132;-1.586;2023-05-20T01:15:39;102640.81;;;18.33;100.00
71165;BME280;58859;55.132;-1.586;2023-05-20T01:18:07;102638.53;;;18.48;100.00
71165;BME280;58859;55.132;-1.586;2023-05-20T01:20:35;102642.69;;;18.06;100.00
71165;BME280;58859;55.132;-1.586;2023-05-20T01:23:01;102647.72;;;17.72;100.00
71165;BME280;58859;55.132;-1.586;2023-05-20T01:25:27;102641.72;;;17.79;100.00
71165;BME280;58859;55.132;-1.586;2023-05-20T01:27:55;102639.53;;;18.20;100.00
71165;BME280;58859;55.132;-1.586;2023-05-20T01:30:23;102637.16;;;18.26;100.00
71165;BME280;58859;55.132;-1.586;2023-05-20T01:33:04;102632.53;;;18.28;100.00
71165;BME280;58859;55.132;-1.586;2023-05-20T01:35:32;102639.31;;;18.31;100.00
71165;BME280;58859;55.132;-1.586;2023-05-20T01:37:59;102635.94;;;18.21;100.00
71165;BME280;58859;55.132;-1.586;2023-05-20T01:40:25;102646.41;;;17.86;100.00
71165;BME280;58859;55.132;-1.586;2023-05-20T01:42:52;102639.31;;;18.31;100.00
71165;BME280;58859;55.132;-1.586;2023-05-20T01:45:19;102626.84;;;18.33;100.00
71165;BME280;58859;55.132;-1.586;2023-05-20T01:47:45;102633.44;;;18.19;100.00
71165;BME280;58859;55.132;-1.586;2023-05-20T01:50:11;102637.66;;;18.12;100.00
71165;BME280;58859;55.132;-1.586;2023-05-20T01:52:36;102637.75;;;18.20;100.00
71165;BME280;58859;55.132;-1.586;2023-05-20T01:55:01;102640.59;;;18.09;100.00
71165;BME280;58859;55.132;-1.586;2023-05-20T01:57:27;102638.94;;;18.08;100.00
71165;BME280;58859;55.132;-1.586;2023-05-20T01:59:52;102635.25;;;18.01;100.00
71165;BME280;58859;55.132;-1.586;2023-05-20T02:02:18;102647.03;;;17.97;100.00
71165;BME280;58859;55.132;-1.586;2023-05-20T02:04:49;102644.78;;;18.02;100.00
71165;BME280;58859;55.132;-1.586;2023-05-20T02:07:15;102642.59;;;16.78;100.00
71165;BME280;58859;55.132;-1.586;2023-05-20T02:09:42;102640.09;;;16.28;100.00
71165;BME280;58859;55.132;-1.586;2023-05-20T02:12:09;102646.75;;;17.36;100.00
71165;BME280;58859;55.132;-1.586;2023-05-20T02:14:40;102654.09;;;17.33;100.00
71165;BME280;58859;55.132;-1.586;2023-05-20T02:17:06;102649.03;;;17.49;100.00
71165;BME280;58859;55.132;-1.586;2023-05-20T02:19:31;102627.69;;;17.89;100.00
71165;BME280;58859;55.132;-1.586;2023-05-20T02:21:57;102644.91;;;17.83;100.00
71165;BME280;58859;55.132;-1.586;2023-05-20T02:24:22;102647.47;;;17.65;100.00
71165;BME280;58859;55.132;-1.586;2023-05-20T02:26:47;102635.25;;;18.01;100.00
71165;BME280;58859;55.132;-1.586;2023-05-20T02:29:15;102643.97;;;18.02;100.00
71165;BME280;58859;55.132;-1.586;2023-05-20T02:31:41;102644.09;;;18.00;100.00
71165;BME280;58859;55.132;-1.586;2023-05-20T02:34:06;102635.16;;;17.93;100.00
71165;BME280;58859;55.132;-1.586;2023-05-20T02:36:32;102634.50;;;17.54;100.00
71165;BME280;58859;55.132;-1.586;2023-05-20T02:38:57;102601.31;;;16.97;100.00
71165;BME280;58859;55.132;-1.586;2023-05-20T02:41:23;102638.66;;;17.10;100.00
71165;BME280;58859;55.132;-1.586;2023-05-20T02:43:48;102640.09;;;17.42;100.00
71165;BME280;58859;55.132;-1.586;2023-05-20T02:46:14;102643.19;;;17.18;100.00
71165;BME280;58859;55.132;-1.586;2023-05-20T02:48:40;102641.72;;;16.29;100.00
71165;BME280;58859;55.132;-1.586;2023-05-20T02:51:05;102646.63;;;14.82;100.00
71165;BME280;58859;55.132;-1.586;2023-05-20T02:53:30;102649.69;;;15.08;100.00
71165;BME280;58859;55.132;-1.586;2023-05-20T02:55:56;102646.75;;;15.83;100.00
71165;BME280;58859;55.132;-1.586;2023-05-20T02:58:21;102644.06;;;16.32;100.00
71165;BME280;58859;55.132;-1.586;2023-05-20T03:00:51;102645.94;;;17.26;100.00
71165;BME280;58859;55.132;-1.586;2023-05-20T03:03:16;102651.78;;;17.20;100.00
71165;BME280;58859;55.132;-1.586;2023-05-20T03:05:42;102632.56;;;17.19;100.00
71165;BME280;58859;55.132;-1.586;2023-05-20T03:08:10;102657.75;;;12.99;100.00
71165;BME280;58859;55.132;-1.586;2023-05-20T03:10:37;102649.81;;;12.42;100.00
71165;BME280;58859;55.132;-1.586;2023-05-20T03:13:04;102656.19;;;12.61;100.00
71165;BME280;58859;55.132;-1.586;2023-05-20T03:15:33;102652.63;;;13.54;100.00
71165;BME280;58859;55.132;-1.586;2023-05-20T03:18:00;102649.59;;;15.10;100.00
71165;BME280;58859;55.132;-1.586;2023-05-20T03:20:25;102642.34;;;15.83;100.00
71165;BME280;58859;55.132;-1.586;2023-05-20T03:22:51;102638.88;;;15.83;100.00
71165;BME280;58859;55.132;-1.586;2023-05-20T03:25:16;102640.63;;;16.22;100.00
71165;BME280;58859;55.132;-1.586;2023-05-20T03:27:42;102642.22;;;14.83;100.00
71165;BME280;58859;55.132;-1.586;2023-05-20T03:30:09;102639.78;;;15.63;100.00
71165;BME280;58859;55.132;-1.586;2023-05-20T03:32:34;102640.47;;;15.34;100.00
71165;BME280;58859;55.132;-1.586;2023-05-20T03:35:00;102643.19;;;15.93;100.00
71165;BME280;58859;55.132;-1.586;2023-05-20T03:37:25;102649.91;;;15.77;100.00
71165;BME280;58859;55.132;-1.586;2023-05-20T03:39:51;102643.13;;;16.72;100.00
71165;BME280;58859;55.132;-1.586;2023-05-20T03:42:16;102648.38;;;14.29;100.00
71165;BME280;58859;55.132;-1.586;2023-05-20T03:44:41;102650.63;;;15.07;100.00
71165;BME280;58859;55.132;-1.586;2023-05-20T03:47:07;102648.31;;;15.34;100.00
71165;BME280;58859;55.132;-1.586;2023-05-20T03:49:32;102641.50;;;14.17;100.00
71165;BME280;58859;55.132;-1.586;2023-05-20T03:51:57;102648.16;;;15.06;100.00
71165;BME280;58859;55.132;-1.586;2023-05-20T03:54:23;102639.06;;;16.00;100.00
71165;BME280;58859;55.132;-1.586;2023-05-20T03:56:48;102640.41;;;15.85;100.00
71165;BME280;58859;55.132;-1.586;2023-05-20T03:59:14;102640.63;;;17.08;100.00
71165;BME280;58859;55.132;-1.586;2023-05-20T04:01:39;102644.31;;;16.00;100.00
71165;BME280;58859;55.132;-1.586;2023-05-20T04:04:05;102647.16;;;17.41;100.00
71165;BME280;58859;55.132;-1.586;2023-05-20T04:06:31;102654.78;;;15.91;100.00
71165;BME280;58859;55.132;-1.586;2023-05-20T04:08:57;102639.69;;;16.71;100.00
71165;BME280;58859;55.132;-1.586;2023-05-20T04:11:22;102644.03;;;17.18;100.00
71165;BME280;58859;55.132;-1.586;2023-05-20T04:13:48;102642.94;;;17.58;100.00
71165;BME280;58859;55.132;-1.586;2023-05-20T04:16:13;102646.41;;;17.58;100.00
71165;BME280;58859;55.132;-1.586;2023-05-20T04:18:39;102638.47;;;17.95;100.00
71165;BME280;58859;55.132;-1.586;2023-05-20T04:21:05;102649.81;;;17.68;100.00
71165;BME280;58859;55.132;-1.586;2023-05-20T04:23:30;102642.13;;;17.11;100.00
71165;BME280;58859;55.132;-1.586;2023-05-20T04:25:55;102636.88;;;17.01;100.00
71165;BME280;58859;55.132;-1.586;2023-05-20T04:28:26;102634.00;;;16.76;100.00
71165;BME280;58859;55.132;-1.586;2023-05-20T04:30:59;102640.66;;;14.17;100.00
71165;BME280;58859;55.132;-1.586;2023-05-20T04:33:25;102656.19;;;13.64;100.00
71165;BME280;58859;55.132;-1.586;2023-05-20T04:35:51;102641.63;;;15.21;100.00
71165;BME280;58859;55.132;-1.586;2023-05-20T04:38:16;102646.47;;;15.25;100.00
71165;BME280;58859;55.132;-1.586;2023-05-20T04:40:42;102652.34;;;13.91;100.00
71165;BME280;58859;55.132;-1.586;2023-05-20T04:43:07;102652.38;;;13.57;100.00
71165;BME280;58859;55.132;-1.586;2023-05-20T04:45:33;102659.88;;;13.73;100.00
71165;BME280;58859;55.132;-1.586;2023-05-20T04:48:00;102646.16;;;14.57;100.00
71165;BME280;58859;55.132;-1.586;2023-05-20T04:50:26;102642.44;;;15.21;100.00
71165;BME280;58859;55.132;-1.586;2023-05-20T04:52:52;102636.69;;;15.48;100.00
71165;BME280;58859;55.132;-1.586;2023-05-20T04:55:18;102646.25;;;16.08;100.00
71165;BME280;58859;55.132;-1.586;2023-05-20T04:57:45;102648.63;;;16.97;100.00
71165;BME280;58859;55.132;-1.586;2023-05-20T05:00:11;102639.31;;;15.88;100.00
71165;BME280;58859;55.132;-1.586;2023-05-20T05:02:37;102647.59;;;16.71;100.00
71165;BME280;58859;55.132;-1.586;2023-05-20T05:05:03;102657.09;;;15.75;100.00
71165;BME280;58859;55.132;-1.586;2023-05-20T05:07:29;102655.31;;;16.82;100.00
71165;BME280;58859;55.132;-1.586;2023-05-20T05:09:54;102647.03;;;16.67;100.00
71165;BME280;58859;55.132;-1.586;2023-05-20T05:12:20;102650.00;;;14.53;100.00
71165;BME280;58859;55.132;-1.586;2023-05-20T05:14:45;102661.19;;;13.56;100.00
71165;BME280;58859;55.132;-1.586;2023-05-20T05:17:11;102650.09;;;14.51;100.00
71165;BME280;58859;55.132;-1.586;2023-05-20T05:19:36;102647.97;;;13.91;100.00
71165;BME280;58859;55.132;-1.586;2023-05-20T05:22:02;102644.88;;;15.64;100.00
71165;BME280;58859;55.132;-1.586;2023-05-20T05:24:27;102642.59;;;14.78;100.00
71165;BME280;58859;55.132;-1.586;2023-05-20T05:26:53;102639.16;;;14.78;100.00
71165;BME280;58859;55.132;-1.586;2023-05-20T05:29:19;102635.53;;;15.81;100.00
71165;BME280;58859;55.132;-1.586;2023-05-20T05:31:44;102638.31;;;16.57;100.00
71165;BME280;58859;55.132;-1.586;2023-05-20T05:34:10;102640.63;;;16.99;100.00
71165;BME280;58859;55.132;-1.586;2023-05-20T05:36:37;102647.66;;;15.63;100.00
71165;BME280;58859;55.132;-1.586;2023-05-20T05:39:02;102644.25;;;15.21;100.00
71165;BME280;58859;55.132;-1.586;2023-05-20T05:41:28;102644.88;;;16.04;100.00
71165;BME280;58859;55.132;-1.586;2023-05-20T05:43:54;102647.91;;;17.14;100.00
71165;BME280;58859;55.132;-1.586;2023-05-20T05:46:19;102647.56;;;16.90;100.00
71165;BME280;58859;55.132;-1.586;2023-05-20T05:48:45;102642.41;;;15.32;100.00
71165;BME280;58859;55.132;-1.586;2023-05-20T05:51:13;102651.19;;;15.01;100.00
71165;BME280;58859;55.132;-1.586;2023-05-20T05:53:39;102647.97;;;14.98;100.00
71165;BME280;58859;55.132;-1.586;2023-05-20T05:56:05;102644.88;;;16.04;100.00
71165;BME280;58859;55.132;-1.586;2023-05-20T05:58:31;102642.41;;;17.08;100.00
71165;BME280;58859;55.132;-1.586;2023-05-20T06:00:57;102638.41;;;16.18;100.00
71165;BME280;58859;55.132;-1.586;2023-05-20T06:03:23;102639.75;;;16.12;100.00
71165;BME280;58859;55.132;-1.586;2023-05-20T06:05:48;102642.03;;;16.93;100.00
71165;BME280;58859;55.132;-1.586;2023-05-20T06:08:14;102645.63;;;17.39;100.00
71165;BME280;58859;55.132;-1.586;2023-05-20T06:10:39;102648.47;;;17.18;100.00
71165;BME280;58859;55.132;-1.586;2023-05-20T06:13:05;102619.16;;;17.50;100.00
71165;BME280;58859;55.132;-1.586;2023-05-20T06:15:30;102631.94;;;17.99;100.00
71165;BME280;58859;55.132;-1.586;2023-05-20T06:17:56;102634.53;;;17.82;100.00
71165;BME280;58859;55.132;-1.586;2023-05-20T06:20:21;102636.50;;;14.98;100.00
71165;BME280;58859;55.132;-1.586;2023-05-20T06:22:46;102651.28;;;15.41;100.00
71165;BME280;58859;55.132;-1.586;2023-05-20T06:25:12;102638.53;;;17.49;100.00
71165;BME280;58859;55.132;-1.586;2023-05-20T06:27:38;102630.22;;;18.08;100.00
71165;BME280;58859;55.132;-1.586;2023-05-20T06:30:04;102636.28;;;17.17;100.00
71165;BME280;58859;55.132;-1.586;2023-05-20T06:32:30;102644.19;;;14.90;100.00
71165;BME280;58859;55.132;-1.586;2023-05-20T06:34:55;102627.56;;;15.22;100.00
71165;BME280;58859;55.132;-1.586;2023-05-20T06:37:20;102643.94;;;17.01;100.00
71165;BME280;58859;55.132;-1.586;2023-05-20T06:39:49;102638.56;;;18.03;100.00
71165;BME280;58859;55.132;-1.586;2023-05-20T06:42:18;102638.41;;;16.46;100.00
71165;BME280;58859;55.132;-1.586;2023-05-20T06:44:44;102642.06;;;16.64;100.00
71165;BME280;58859;55.132;-1.586;2023-05-20T06:47:09;102625.75;;;17.17;100.00
71165;BME280;58859;55.132;-1.586;2023-05-20T06:49:35;102634.44;;;15.43;100.00
71165;BME280;58859;55.132;-1.586;2023-05-20T06:52:01;102634.91;;;14.66;100.00
71165;BME280;58859;55.132;-1.586;2023-05-20T06:54:26;102627.78;;;16.38;100.00
71165;BME280;58859;55.132;-1.586;2023-05-20T06:56:52;102631.91;;;14.50;100.00
71165;BME280;58859;55.132;-1.586;2023-05-20T06:59:17;102633.84;;;15.61;100.00
71165;BME280;58859;55.132;-1.586;2023-05-20T07:01:43;102623.59;;;14.65;100.00
71165;BME280;58859;55.132;-1.586;2023-05-20T07:04:08;102633.28;;;14.85;100.00
71165;BME280;58859;55.132;-1.586;2023-05-20T07:06:33;102637.84;;;15.34;100.00
71165;BME280;58859;55.132;-1.586;2023-05-20T07:08:59;102626.38;;;16.92;100.00
71165;BME280;58859;55.132;-1.586;2023-05-20T07:11:25;102634.88;;;15.18;100.00
71165;BME280;58859;55.132;-1.586;2023-05-20T07:13:50;102634.63;;;15.31;100.00
71165;BME280;58859;55.132;-1.586;2023-05-20T07:16:16;102636.59;;;14.87;100.00
71165;BME280;58859;55.132;-1.586;2023-05-20T07:18:41;102629.88;;;15.66;100.00
71165;BME280;58859;55.132;-1.586;2023-05-20T07:21:07;102625.28;;;16.46;100.00
71165;BME280;58859;55.132;-1.586;2023-05-20T07:23:33;102635.69;;;16.57;100.00
71165;BME280;58859;55.132;-1.586;2023-05-20T07:25:59;102640.13;;;16.57;100.00
71165;BME280;58859;55.132;-1.586;2023-05-20T07:28:24;102630.81;;;15.65;100.00
71165;BME280;58859;55.132;-1.586;2023-05-20T07:30:50;102630.28;;;15.41;100.00
71165;BME280;58859;55.132;-1.586;2023-05-20T07:33:16;102630.75;;;15.86;100.00
71165;BME280;58859;55.132;-1.586;2023-05-20T07:35:42;102633.69;;;15.62;100.00
71165;BME280;58859;55.132;-1.586;2023-05-20T07:38:07;102637.09;;;15.83;100.00
71165;BME280;58859;55.132;-1.586;2023-05-20T07:40:33;102631.19;;;16.10;100.00
71165;BME280;58859;55.132;-1.586;2023-05-20T07:43:00;102631.13;;;16.59;100.00
71165;BME280;58859;55.132;-1.586;2023-05-20T07:45:26;102632.28;;;17.22;100.00
71165;BME280;58859;55.132;-1.586;2023-05-20T07:47:51;102630.91;;;17.09;100.00
71165;BME280;58859;55.132;-1.586;2023-05-20T07:50:16;102635.09;;;16.44;100.00
71165;BME280;58859;55.132;-1.586;2023-05-20T07:52:42;102630.69;;;16.26;100.00
71165;BME280;58859;55.132;-1.586;2023-05-20T07:55:07;102636.03;;;17.57;100.00
71165;BME280;58859;55.132;-1.586;2023-05-20T07:57:33;102639.34;;;17.59;100.00
71165;BME280;58859;55.132;-1.586;2023-05-20T07:59:58;102620.94;;;18.39;100.00
71165;BME280;58859;55.132;-1.586;2023-05-20T08:02:23;102621.72;;;18.67;100.00
71165;BME280;58859;55.132;-1.586;2023-05-20T08:04:49;102622.25;;;19.89;100.00
71165;BME280;58859;55.132;-1.586;2023-05-20T08:07:14;102624.09;;;18.25;100.00
71165;BME280;58859;55.132;-1.586;2023-05-20T08:09:39;102616.97;;;19.22;100.00
71165;BME280;58859;55.132;-1.586;2023-05-20T08:12:05;102624.00;;;18.87;100.00
71165;BME280;58859;55.132;-1.586;2023-05-20T08:14:30;102600.00;;;20.81;100.00
71165;BME280;58859;55.132;-1.586;2023-05-20T08:16:56;102616.81;;;21.20;100.00
71165;BME280;58859;55.132;-1.586;2023-05-20T08:19:21;102622.88;;;19.83;100.00
71165;BME280;58859;55.132;-1.586;2023-05-20T08:21:47;102620.94;;;20.01;100.00
71165;BME280;58859;55.132;-1.586;2023-05-20T08:24:12;102623.56;;;19.93;100.00
71165;BME280;58859;55.132;-1.586;2023-05-20T08:26:38;102616.19;;;20.29;100.00
71165;BME280;58859;55.132;-1.586;2023-05-20T08:29:03;102622.13;;;21.12;100.00
71165;BME280;58859;55.132;-1.586;2023-05-20T08:31:29;102615.88;;;20.89;100.00
71165;BME280;58859;55.132;-1.586;2023-05-20T08:33:54;102626.59;;;19.65;100.00
71165;BME280;58859;55.132;-1.586;2023-05-20T08:36:20;102617.88;;;20.71;100.00
71165;BME280;58859;55.132;-1.586;2023-05-20T08:38:45;102608.13;;;20.63;100.00
71165;BME280;58859;55.132;-1.586;2023-05-20T08:41:10;102606.59;;;21.17;100.00
71165;BME280;58859;55.132;-1.586;2023-05-20T08:43:36;102613.09;;;20.42;100.00
71165;BME280;58859;55.132;-1.586;2023-05-20T08:46:01;102600.63;;;22.15;100.00
71165;BME280;58859;55.132;-1.586;2023-05-20T08:48:29;102611.09;;;21.78;100.00
71165;BME280;58859;55.132;-1.586;2023-05-20T08:50:56;102604.44;;;22.58;100.00
71165;BME280;58859;55.132;-1.586;2023-05-20T08:53:22;102603.81;;;22.11;100.00
71165;BME280;58859;55.132;-1.586;2023-05-20T08:55:52;102604.28;;;21.14;100.00
71165;BME280;58859;55.132;-1.586;2023-05-20T08:58:20;102609.09;;;20.38;100.00
71165;BME280;58859;55.132;-1.586;2023-05-20T09:00:46;102605.31;;;20.64;100.00
71165;BME280;58859;55.132;-1.586;2023-05-20T09:03:11;102602.63;;;21.91;100.00
71165;BME280;58859;55.132;-1.586;2023-05-20T09:08:12;102595.19;;;24.07;100.00
71165;BME280;58859;55.132;-1.586;2023-05-20T09:10:39;102598.38;;;23.60;100.00
71165;BME280;58859;55.132;-1.586;2023-05-20T09:13:05;102588.16;;;23.99;100.00
71165;BME280;58859;55.132;-1.586;2023-05-20T09:15:34;102589.69;;;23.52;100.00
71165;BME280;58859;55.132;-1.586;2023-05-20T09:18:01;102594.00;;;23.23;100.00
71165;BME280;58859;55.132;-1.586;2023-05-20T09:20:27;102585.84;;;24.11;100.00
71165;BME280;58859;55.132;-1.586;2023-05-20T09:23:04;102583.28;;;23.82;100.00
71165;BME280;58859;55.132;-1.586;2023-05-20T09:25:30;102581.00;;;24.70;100.00
71165;BME280;58859;55.132;-1.586;2023-05-20T09:27:56;102582.19;;;23.40;100.00
71165;BME280;58859;55.132;-1.586;2023-05-20T09:30:22;102581.84;;;23.65;100.00
71165;BME280;58859;55.132;-1.586;2023-05-20T09:32:54;102586.38;;;25.04;100.00
71165;BME280;58859;55.132;-1.586;2023-05-20T09:35:21;102584.22;;;23.95;100.00
71165;BME280;58859;55.132;-1.586;2023-05-20T09:37:51;102585.25;;;23.94;100.00
71165;BME280;58859;55.132;-1.586;2023-05-20T09:40:22;102582.28;;;23.83;100.00
71165;BME280;58859;55.132;-1.586;2023-05-20T09:42:53;102577.81;;;24.26;100.00
71165;BME280;58859;55.132;-1.586;2023-05-20T09:45:21;102575.97;;;24.26;100.00
71165;BME280;58859;55.132;-1.586;2023-05-20T09:47:49;102577.06;;;23.39;100.00
71165;BME280;58859;55.132;-1.586;2023-05-20T09:50:15;102572.88;;;24.23;100.00
71165;BME280;58859;55.132;-1.586;2023-05-20T09:52:42;102567.53;;;23.30;100.00
71165;BME280;58859;55.132;-1.586;2023-05-20T09:55:09;102569.91;;;24.11;100.00
71165;BME280;58859;55.132;-1.586;2023-05-20T09:57:35;102575.22;;;23.39;100.00
71165;BME280;58859;55.132;-1.586;2023-05-20T10:00:03;102564.31;;;23.49;100.00
71165;BME280;58859;55.132;-1.586;2023-05-20T10:02:30;102564.63;;;23.96;100.00
71165;BME280;58859;55.132;-1.586;2023-05-20T10:04:56;102568.09;;;24.39;100.00
71165;BME280;58859;55.132;-1.586;2023-05-20T10:10:32;102559.69;;;23.72;100.00
71165;BME280;58859;55.132;-1.586;2023-05-20T10:20:59;102554.63;;;24.20;100.00
71165;BME280;58859;55.132;-1.586;2023-05-20T10:23:29;102562.75;;;23.76;100.00
71165;BME280;58859;55.132;-1.586;2023-05-20T10:25:55;102550.84;;;25.25;100.00
71165;BME280;58859;55.132;-1.586;2023-05-20T10:28:30;102556.69;;;24.18;100.00
71165;BME280;58859;55.132;-1.586;2023-05-20T10:30:56;102553.03;;;24.25;100.00
71165;BME280;58859;55.132;-1.586;2023-05-20T10:33:22;102555.38;;;24.63;100.00
71165;BME280;58859;55.132;-1.586;2023-05-20T10:35:50;102550.44;;;24.59;100.00
71165;BME280;58859;55.132;-1.586;2023-05-20T10:38:19;102554.72;;;24.82;100.00
71165;BME280;58859;55.132;-1.586;2023-05-20T10:40:46;102550.31;;;23.97;100.00
71165;BME280;58859;55.132;-1.586;2023-05-20T10:43:16;102546.50;;;24.55;100.00
71165;BME280;58859;55.132;-1.586;2023-05-20T10:45:51;102534.97;;;23.57;100.00
71165;BME280;58859;55.132;-1.586;2023-05-20T10:48:28;102543.22;;;24.53;100.00
71165;BME280;58859;55.132;-1.586;2023-05-20T10:50:55;102539.44;;;25.03;100.00
71165;BME280;58859;55.132;-1.586;2023-05-20T10:53:25;102526.53;;;25.00;100.00
71165;BME280;58859;55.132;-1.586;2023-05-20T10:55:52;102523.38;;;24.84;100.00
71165;BME280;58859;55.132;-1.586;2023-05-20T10:58:21;102523.28;;;24.71;100.00
71165;BME280;58859;55.132;-1.586;2023-05-20T11:00:47;102524.63;;;24.26;100.00
71165;BME280;58859;55.132;-1.586;2023-05-20T11:03:15;102527.84;;;25.17;100.00
71165;BME280;58859;55.132;-1.586;2023-05-20T11:05:40;102525.03;;;25.26;100.00
71165;BME280;58859;55.132;-1.586;2023-05-20T11:08:07;102524.50;;;24.68;100.00
71165;BME280;58859;55.132;-1.586;2023-05-20T11:10:34;102524.72;;;24.73;100.00
71165;BME280;58859;55.132;-1.586;2023-05-20T11:13:00;102523.44;;;24.63;100.00
71165;BME280;58859;55.132;-1.586;2023-05-20T11:15:26;102527.53;;;23.17;100.00
71165;BME280;58859;55.132;-1.586;2023-05-20T11:17:53;102523.03;;;23.17;100.00
71165;BME280;58859;55.132;-1.586;2023-05-20T11:20:23;102515.38;;;24.22;100.00
71165;BME280;58859;55.132;-1.586;2023-05-20T11:22:52;102520.41;;;24.66;100.00
71165;BME280;58859;55.132;-1.586;2023-05-20T11:25:19;102524.53;;;24.40;100.00
71165;BME280;58859;55.132;-1.586;2023-05-20T11:27:45;102519.69;;;23.80;100.00
71165;BME280;58859;55.132;-1.586;2023-05-20T11:30:13;102517.00;;;24.50;100.00
71165;BME280;58859;55.132;-1.586;2023-05-20T11:33:02;102514.69;;;23.35;100.00
71165;BME280;58859;55.132;-1.586;2023-05-20T11:35:29;102516.91;;;23.88;100.00
71165;BME280;58859;55.132;-1.586;2023-05-20T11:38:03;102510.31;;;24.06;100.00
71165;BME280;58859;55.132;-1.586;2023-05-20T11:40:30;102510.44;;;23.76;100.00
71165;BME280;58859;55.132;-1.586;2023-05-20T11:42:58;102515.19;;;23.09;100.00
71165;BME280;58859;55.132;-1.586;2023-05-20T11:45:23;102509.28;;;23.28;100.00
71165;BME280;58859;55.132;-1.586;2023-05-20T11:47:59;102498.59;;;24.21;100.00
71165;BME280;58859;55.132;-1.586;2023-05-20T11:50:25;102495.25;;;23.34;100.00
71165;BME280;58859;55.132;-1.586;2023-05-20T11:52:59;102495.91;;;24.15;100.00
71165;BME280;58859;55.132;-1.586;2023-05-20T11:55:26;102490.50;;;24.36;100.00
71165;BME280;58859;55.132;-1.586;2023-05-20T11:57:52;102487.25;;;24.13;100.00
71165;BME280;58859;55.132;-1.586;2023-05-20T12:00:18;102482.16;;;24.39;100.00
71165;BME280;58859;55.132;-1.586;2023-05-20T12:02:44;102482.16;;;23.69;100.00
71165;BME280;58859;55.132;-1.586;2023-05-20T12:05:10;102488.22;;;24.26;100.00
71165;BME280;58859;55.132;-1.586;2023-05-20T12:07:35;102480.53;;;24.38;100.00
71165;BME280;58859;55.132;-1.586;2023-05-20T12:10:02;102466.72;;;23.22;100.00
71165;BME280;58859;55.132;-1.586;2023-05-20T12:12:27;102481.69;;;24.29;100.00
71165;BME280;58859;55.132;-1.586;2023-05-20T12:14:53;102477.06;;;24.16;100.00
71165;BME280;58859;55.132;-1.586;2023-05-20T12:17:18;102471.59;;;24.52;100.00
71165;BME280;58859;55.132;-1.586;2023-05-20T12:19:44;102468.00;;;24.73;100.00
71165;BME280;58859;55.132;-1.586;2023-05-20T12:22:10;102471.28;;;23.64;100.00
71165;BME280;58859;55.132;-1.586;2023-05-20T12:24:35;102460.59;;;23.57;100.00
71165;BME280;58859;55.132;-1.586;2023-05-20T12:27:00;102464.63;;;22.67;100.00
71165;BME280;58859;55.132;-1.586;2023-05-20T12:29:28;102465.84;;;22.56;100.00
71165;BME280;58859;55.132;-1.586;2023-05-20T12:31:53;102468.81;;;22.09;100.00
71165;BME280;58859;55.132;-1.586;2023-05-20T12:34:19;102465.66;;;23.02;100.00
71165;BME280;58859;55.132;-1.586;2023-05-20T12:36:44;102460.25;;;24.37;100.00
71165;BME280;58859;55.132;-1.586;2023-05-20T12:39:10;102457.59;;;24.37;100.00